| time (UTC) | temp C | wind direction | speed KPH | gust KPH | rain 1hr cm | rain 24hr cm | rain mn cm | humidity % | barometer mb |
| 20260503041216 | 13 | 24 | 14.5 | 16.1 | 0.00 | 0.00 | 0.00 | 60 | 1018.1 |
| 20260503041008 | 13 | 18 | 4.8 | 8.0 | 0.00 | 0.00 | 0.00 | 60 | 1018.1 |
| 20260503040508 | 13 | 357 | 4.8 | 6.4 | 0.00 | 0.00 | 0.00 | 60 | 1018.1 |
| 20260503040213 | 13 | 0 | 0.0 | 3.2 | 0.00 | 0.00 | 0.00 | 59 | 1018.1 |
| 20260503040009 | 13 | 4 | 3.2 | 4.8 | 0.00 | 0.00 | 0.00 | 59 | 1018.1 |
| 20260503035508 | 13 | 1 | 3.2 | 4.8 | 0.00 | 0.00 | 0.00 | 59 | 1018.0 |
| 20260503035215 | 13 | 0 | 1.6 | 3.2 | 0.00 | 0.00 | 0.00 | 59 | 1018.0 |
| 20260503035007 | 13 | 0 | 3.2 | 3.2 | 0.00 | 0.00 | 0.00 | 59 | 1018.0 |
| 20260503034508 | 13 | 6 | 3.2 | 3.2 | 0.00 | 0.00 | 0.00 | 58 | 1018.0 |
| 20260503034213 | 13 | 0 | 1.6 | 4.8 | 0.00 | 0.00 | 0.00 | 58 | 1017.9 |
| 20260503034008 | 13 | 0 | 3.2 | 4.8 | 0.00 | 0.00 | 0.00 | 58 | 1017.9 |
| 20260503033508 | 13 | 7 | 4.8 | 6.4 | 0.00 | 0.00 | 0.00 | 58 | 1017.9 |
| 20260503033214 | 13 | 359 | 1.6 | 4.8 | 0.00 | 0.00 | 0.00 | 59 | 1017.9 |
| 20260503033009 | 13 | 0 | 3.2 | 6.4 | 0.00 | 0.00 | 0.00 | 59 | 1017.9 |
| 20260503032508 | 13 | 0 | 3.2 | 4.8 | 0.00 | 0.00 | 0.00 | 59 | 1017.9 |
| 20260503032213 | 13 | 0 | 3.2 | 3.2 | 0.00 | 0.00 | 0.00 | 59 | 1017.9 |
| 20260503032007 | 13 | 350 | 0.0 | 3.2 | 0.00 | 0.00 | 0.00 | 59 | 1017.9 |
| 20260503031508 | 13 | 356 | 1.6 | 3.2 | 0.00 | 0.00 | 0.00 | 58 | 1017.9 |
| 20260503031215 | 13 | 350 | 1.6 | 3.2 | 0.00 | 0.00 | 0.00 | 58 | 1017.9 |
| 20260503031008 | 13 | 344 | 1.6 | 3.2 | 0.00 | 0.00 | 0.00 | 58 | 1017.9 |
| 20260503030508 | 13 | 0 | 0.0 | 1.6 | 0.00 | 0.00 | 0.00 | 58 | 1017.9 |
| 20260503030214 | 13 | 0 | 1.6 | 1.6 | 0.00 | 0.00 | 0.00 | 58 | 1017.9 |
| 20260503030008 | 13 | 0 | 1.6 | 3.2 | 0.00 | 0.00 | 0.00 | 57 | 1017.9 |
| 20260503025509 | 13 | 0 | 1.6 | 4.8 | 0.00 | 0.00 | 0.00 | 57 | 1017.7 |
| 20260503025214 | 13 | 359 | 4.8 | 4.8 | 0.00 | 0.00 | 0.00 | 57 | 1017.7 |
| 20260503025008 | 13 | 7 | 4.8 | 6.4 | 0.00 | 0.00 | 0.00 | 57 | 1017.7 |
| 20260503024507 | 13 | 359 | 3.2 | 6.4 | 0.00 | 0.00 | 0.00 | 57 | 1017.7 |
| 20260503024215 | 13 | 8 | 1.6 | 6.4 | 0.00 | 0.00 | 0.00 | 57 | 1017.6 |
| 20260503024008 | 13 | 0 | 3.2 | 4.8 | 0.00 | 0.00 | 0.00 | 57 | 1017.6 |
| 20260503023508 | 13 | 1 | 3.2 | 4.8 | 0.00 | 0.00 | 0.00 | 58 | 1017.6 |
| 20260503023214 | 13 | 359 | 3.2 | 3.2 | 0.00 | 0.00 | 0.00 | 57 | 1017.6 |
| 20260503023009 | 13 | 359 | 0.0 | 1.6 | 0.00 | 0.00 | 0.00 | 57 | 1017.6 |
| 20260503022507 | 13 | 359 | 0.0 | 1.6 | 0.00 | 0.00 | 0.00 | 56 | 1017.4 |
| 20260503022215 | 13 | 0 | 1.6 | 3.2 | 0.00 | 0.00 | 0.00 | 56 | 1017.4 |
| 20260503022008 | 13 | 0 | 0.0 | 3.2 | 0.00 | 0.00 | 0.00 | 56 | 1017.4 |
| 20260503021508 | 13 | 0 | 3.2 | 6.4 | 0.00 | 0.00 | 0.00 | 55 | 1017.4 |
| 20260503021214 | 13 | 0 | 6.4 | 6.4 | 0.00 | 0.00 | 0.00 | 56 | 1017.2 |
| 20260503021009 | 13 | 3 | 3.2 | 4.8 | 0.00 | 0.00 | 0.00 | 56 | 1017.2 |
| 20260503020507 | 13 | 4 | 0.0 | 4.8 | 0.00 | 0.00 | 0.00 | 54 | 1017.2 |
| 20260503020214 | 13 | 342 | 1.6 | 8.0 | 0.00 | 0.00 | 0.00 | 54 | 1017.2 |
| 20260503020008 | 13 | 343 | 0.0 | 6.4 | 0.00 | 0.00 | 0.00 | 55 | 1017.2 |
| 20260503015508 | 13 | 336 | 4.8 | 4.8 | 0.00 | 0.00 | 0.00 | 55 | 1017.0 |
| 20260503015213 | 13 | 350 | 4.8 | 4.8 | 0.00 | 0.00 | 0.00 | 55 | 1017.0 |
| 20260503015009 | 13 | 0 | 3.2 | 3.2 | 0.00 | 0.00 | 0.00 | 55 | 1017.0 |
| 20260503014507 | 13 | 332 | 1.6 | 3.2 | 0.00 | 0.00 | 0.00 | 55 | 1017.0 |
| 20260503014215 | 13 | 350 | 3.2 | 4.8 | 0.00 | 0.00 | 0.00 | 55 | 1016.9 |
| 20260503014007 | 13 | 340 | 3.2 | 3.2 | 0.00 | 0.00 | 0.00 | 55 | 1016.9 |
| 20260503013509 | 13 | 336 | 1.6 | 1.6 | 0.00 | 0.00 | 0.00 | 55 | 1016.9 |
| 20260503013215 | 14 | 342 | 1.6 | 3.2 | 0.00 | 0.00 | 0.00 | 55 | 1016.9 |
| 20260503013009 | 14 | 304 | 4.8 | 4.8 | 0.00 | 0.00 | 0.00 | 54 | 1016.9 |
| 20260503012508 | 14 | 294 | 4.8 | 8.0 | 0.00 | 0.00 | 0.00 | 54 | 1016.7 |
| 20260503012214 | 14 | 336 | 3.2 | 6.4 | 0.00 | 0.00 | 0.00 | 54 | 1016.7 |
| 20260503012009 | 14 | 356 | 0.0 | 3.2 | 0.00 | 0.00 | 0.00 | 53 | 1016.7 |
| 20260503011508 | 14 | 328 | 0.0 | 6.4 | 0.00 | 0.00 | 0.00 | 53 | 1016.7 |
| 20260503011214 | 14 | 312 | 1.6 | 3.2 | 0.00 | 0.00 | 0.00 | 53 | 1016.6 |
| 20260503011009 | 14 | 0 | 1.6 | 3.2 | 0.00 | 0.00 | 0.00 | 52 | 1016.6 |
| 20260503010508 | 14 | 323 | 4.8 | 6.4 | 0.00 | 0.00 | 0.00 | 52 | 1016.6 |
| 20260503010216 | 15 | 339 | 1.6 | 4.8 | 0.00 | 0.00 | 0.00 | 52 | 1016.6 |
| 20260503010009 | 15 | 342 | 1.6 | 4.8 | 0.00 | 0.00 | 0.00 | 52 | 1016.6 |
| 20260503005509 | 15 | 323 | 1.6 | 3.2 | 0.00 | 0.00 | 0.00 | 51 | 1016.5 |
| 20260503005213 | 15 | 333 | 4.8 | 4.8 | 0.00 | 0.00 | 0.00 | 51 | 1016.5 |
| 20260503005008 | 15 | 347 | 1.6 | 3.2 | 0.00 | 0.00 | 0.00 | 51 | 1016.5 |
| 20260503004507 | 15 | 357 | 4.8 | 4.8 | 0.00 | 0.00 | 0.00 | 50 | 1016.5 |
| 20260503004215 | 15 | 340 | 4.8 | 4.8 | 0.00 | 0.00 | 0.00 | 50 | 1016.2 |
| 20260503004008 | 15 | 337 | 3.2 | 4.8 | 0.00 | 0.00 | 0.00 | 50 | 1016.2 |
| 20260503003509 | 15 | 359 | 3.2 | 3.2 | 0.00 | 0.00 | 0.00 | 50 | 1016.2 |
| 20260503003214 | 15 | 308 | 1.6 | 3.2 | 0.00 | 0.00 | 0.00 | 50 | 1016.2 |
| 20260503003008 | 16 | 349 | 0.0 | 3.2 | 0.00 | 0.00 | 0.00 | 50 | 1016.2 |
| 20260503002508 | 16 | 340 | 1.6 | 3.2 | 0.00 | 0.00 | 0.00 | 48 | 1015.9 |
| 20260503002216 | 16 | 347 | 0.0 | 1.6 | 0.00 | 0.00 | 0.00 | 48 | 1015.9 |
| 20260503002007 | 16 | 347 | 1.6 | 3.2 | 0.00 | 0.00 | 0.00 | 47 | 1015.9 |
| 20260503001509 | 16 | 353 | 0.0 | 0.0 | 0.00 | 0.00 | 0.00 | 45 | 1015.9 |
| 20260503001214 | 16 | 56 | 1.6 | 1.6 | 0.00 | 0.00 | 0.00 | 45 | 1015.7 |
| 20260503001008 | 16 | 349 | 0.0 | 0.0 | 0.00 | 0.00 | 0.00 | 45 | 1015.7 |
| 20260503000508 | 16 | 340 | 1.6 | 3.2 | 0.00 | 0.00 | 0.00 | 45 | 1015.7 |
| 20260503000215 | 16 | 4 | 1.6 | 6.4 | 0.00 | 0.00 | 0.00 | 45 | 1015.7 |
| 20260503000008 | 16 | 0 | 4.8 | 4.8 | 0.00 | 0.00 | 0.00 | 45 | 1015.7 |
| 20260502235509 | 16 | 330 | 8.0 | 11.3 | 0.00 | 0.00 | 0.00 | 44 | 1015.6 |
| 20260502235215 | 17 | 71 | 0.0 | 3.2 | 0.00 | 0.00 | 0.00 | 44 | 1015.6 |
| 20260502235009 | 17 | 354 | 8.0 | 16.1 | 0.00 | 0.00 | 0.00 | 45 | 1015.6 |
| 20260502234507 | 17 | 337 | 3.2 | 6.4 | 0.00 | 0.00 | 0.00 | 43 | 1015.6 |
| 20260502234216 | 17 | 0 | 3.2 | 9.7 | 0.00 | 0.00 | 0.00 | 43 | 1015.5 |
| 20260502234007 | 17 | 357 | 4.8 | 4.8 | 0.00 | 0.00 | 0.00 | 43 | 1015.5 |
| 20260502233508 | 17 | 319 | 9.7 | 9.7 | 0.00 | 0.00 | 0.00 | 42 | 1015.5 |
| 20260502233215 | 17 | 330 | 4.8 | 8.0 | 0.00 | 0.00 | 0.00 | 42 | 1015.5 |
| 20260502233012 | 17 | 342 | 3.2 | 14.5 | 0.00 | 0.00 | 0.00 | 41 | 1015.5 |
| 20260502232507 | 17 | 342 | 6.4 | 8.0 | 0.00 | 0.00 | 0.00 | 42 | 1015.4 |
| 20260502232214 | 17 | 295 | 8.0 | 8.0 | 0.00 | 0.00 | 0.00 | 41 | 1015.4 |
| 20260502232009 | 17 | 299 | 3.2 | 6.4 | 0.00 | 0.00 | 0.00 | 41 | 1015.4 |
| 20260502231509 | 17 | 344 | 8.0 | 9.7 | 0.00 | 0.00 | 0.00 | 41 | 1015.4 |
| 20260502231214 | 17 | 339 | 3.2 | 16.1 | 0.00 | 0.00 | 0.00 | 40 | 1015.4 |
| 20260502231008 | 17 | 6 | 9.7 | 14.5 | 0.00 | 0.00 | 0.00 | 41 | 1015.4 |
| 20260502230512 | 17 | 335 | 3.2 | 6.4 | 0.00 | 0.00 | 0.00 | 41 | 1015.4 |
| 20260502230215 | 17 | 0 | 9.7 | 11.3 | 0.00 | 0.00 | 0.00 | 42 | 1015.4 |
| 20260502230012 | 17 | 342 | 8.0 | 8.0 | 0.00 | 0.00 | 0.00 | 42 | 1015.4 |
| 20260502225511 | 17 | 357 | 1.6 | 4.8 | 0.00 | 0.00 | 0.00 | 42 | 1015.5 |
| 20260502225214 | 17 | 24 | 3.2 | 3.2 | 0.00 | 0.00 | 0.00 | 41 | 1015.5 |
| 20260502225013 | 17 | 7 | 1.6 | 8.0 | 0.00 | 0.00 | 0.00 | 41 | 1015.5 |
| 20260502224512 | 17 | 352 | 8.0 | 9.7 | 0.00 | 0.00 | 0.00 | 40 | 1015.5 |
| 20260502224215 | 17 | 304 | 8.0 | 14.5 | 0.00 | 0.00 | 0.00 | 40 | 1015.4 |
| 20260502224012 | 17 | 0 | 8.0 | 9.7 | 0.00 | 0.00 | 0.00 | 40 | 1015.4 |
| 20260502223512 | 17 | 325 | 6.4 | 14.5 | 0.00 | 0.00 | 0.00 | 41 | 1015.4 |
| 20260502223214 | 17 | 0 | 6.4 | 6.4 | 0.00 | 0.00 | 0.00 | 41 | 1015.4 |
| 20260502223012 | 17 | 359 | 1.6 | 14.5 | 0.00 | 0.00 | 0.00 | 40 | 1015.4 |
| 20260502222513 | 17 | 357 | 1.6 | 8.0 | 0.00 | 0.00 | 0.00 | 39 | 1015.4 |
| 20260502222215 | 17 | 0 | 12.9 | 16.1 | 0.00 | 0.00 | 0.00 | 38 | 1015.4 |
| 20260502222012 | 17 | 352 | 16.1 | 16.1 | 0.00 | 0.00 | 0.00 | 38 | 1015.4 |
| 20260502221511 | 17 | 1 | 4.8 | 19.3 | 0.00 | 0.00 | 0.00 | 40 | 1015.4 |
| 20260502221214 | 17 | 311 | 6.4 | 8.0 | 0.00 | 0.00 | 0.00 | 40 | 1015.3 |
| 20260502221011 | 17 | 58 | 0.0 | 1.6 | 0.00 | 0.00 | 0.00 | 40 | 1015.3 |
| 20260502220512 | 17 | 37 | 11.3 | 11.3 | 0.00 | 0.00 | 0.00 | 40 | 1015.3 |
| 20260502220214 | 17 | 1 | 11.3 | 12.9 | 0.00 | 0.00 | 0.00 | 41 | 1015.3 |
| 20260502220011 | 18 | 52 | 4.8 | 4.8 | 0.00 | 0.00 | 0.00 | 40 | 1015.3 |
| 20260502215300 | 18 | 1 | 9.7 | 11.3 | 0.00 | 0.00 | 0.00 | 39 | 1015.2 |
| 20260502215215 | 18 | 31 | 4.8 | 4.8 | 0.00 | 0.00 | 0.00 | 39 | 1015.2 |
| 20260502214800 | 18 | 233 | 1.6 | 3.2 | 0.00 | 0.00 | 0.00 | 40 | 1015.2 |
| 20260502214301 | 18 | 356 | 3.2 | 9.7 | 0.00 | 0.00 | 0.00 | 38 | 1015.2 |
| 20260502214214 | 18 | 356 | 3.2 | 9.7 | 0.00 | 0.00 | 0.00 | 38 | 1015.2 |
| 20260502213800 | 18 | 3 | 4.8 | 16.1 | 0.00 | 0.00 | 0.00 | 39 | 1015.2 |
| 20260502213301 | 18 | 0 | 9.7 | 14.5 | 0.00 | 0.00 | 0.00 | 37 | 1015.2 |
| 20260502213215 | 18 | 0 | 9.7 | 14.5 | 0.00 | 0.00 | 0.00 | 37 | 1015.2 |
| 20260502212800 | 18 | 330 | 6.4 | 9.7 | 0.00 | 0.00 | 0.00 | 40 | 1015.2 |
| 20260502212304 | 18 | 59 | 4.8 | 8.0 | 0.00 | 0.00 | 0.00 | 41 | 1015.2 |
| 20260502212214 | 18 | 59 | 4.8 | 8.0 | 0.00 | 0.00 | 0.00 | 41 | 1015.2 |
| 20260502211801 | 18 | 292 | 9.7 | 16.1 | 0.00 | 0.00 | 0.00 | 40 | 1015.2 |
| 20260502211300 | 18 | 27 | 3.2 | 14.5 | 0.00 | 0.00 | 0.00 | 39 | 1015.3 |
| 20260502211214 | 18 | 27 | 3.2 | 14.5 | 0.00 | 0.00 | 0.00 | 39 | 1015.3 |
| 20260502210800 | 18 | 311 | 8.0 | 14.5 | 0.00 | 0.00 | 0.00 | 40 | 1015.3 |
| 20260502210301 | 18 | 23 | 4.8 | 11.3 | 0.00 | 0.00 | 0.00 | 38 | 1015.3 |
| 20260502210214 | 18 | 23 | 4.8 | 11.3 | 0.00 | 0.00 | 0.00 | 38 | 1015.3 |
| 20260502205800 | 18 | 350 | 14.5 | 16.1 | 0.00 | 0.00 | 0.00 | 38 | 1015.2 |
| 20260502205300 | 18 | 1 | 8.0 | 16.1 | 0.00 | 0.00 | 0.00 | 38 | 1015.2 |
| 20260502205214 | 18 | 1 | 8.0 | 16.1 | 0.00 | 0.00 | 0.00 | 38 | 1015.2 |
| 20260502204802 | 18 | 343 | 14.5 | 16.1 | 0.00 | 0.00 | 0.00 | 41 | 1015.2 |
| 20260502204301 | 18 | 313 | 4.8 | 12.9 | 0.00 | 0.00 | 0.00 | 40 | 1015.4 |
| 20260502204213 | 18 | 313 | 4.8 | 12.9 | 0.00 | 0.00 | 0.00 | 40 | 1015.4 |
| 20260502203800 | 18 | 0 | 12.9 | 14.5 | 0.00 | 0.00 | 0.00 | 39 | 1015.4 |
| 20260502203301 | 18 | 325 | 14.5 | 16.1 | 0.00 | 0.00 | 0.00 | 40 | 1015.4 |
| 20260502203216 | 18 | 325 | 14.5 | 16.1 | 0.00 | 0.00 | 0.00 | 40 | 1015.4 |
| 20260502202801 | 18 | 17 | 6.4 | 19.3 | 0.00 | 0.00 | 0.00 | 40 | 1015.3 |
| 20260502202300 | 18 | 68 | 0.0 | 11.3 | 0.00 | 0.00 | 0.00 | 40 | 1015.3 |
| 20260502202215 | 18 | 68 | 0.0 | 11.3 | 0.00 | 0.00 | 0.00 | 40 | 1015.3 |
| 20260502201801 | 18 | 3 | 14.5 | 16.1 | 0.00 | 0.00 | 0.00 | 40 | 1015.3 |
| 20260502201301 | 18 | 322 | 9.7 | 16.1 | 0.00 | 0.00 | 0.00 | 40 | 1015.4 |
| 20260502201214 | 18 | 322 | 9.7 | 16.1 | 0.00 | 0.00 | 0.00 | 40 | 1015.4 |
| 20260502200802 | 18 | 71 | 8.0 | 29.0 | 0.00 | 0.00 | 0.00 | 38 | 1015.4 |
| 20260502200300 | 18 | 311 | 1.6 | 24.1 | 0.00 | 0.00 | 0.00 | 41 | 1015.4 |
| 20260502200214 | 18 | 311 | 1.6 | 24.1 | 0.00 | 0.00 | 0.00 | 41 | 1015.4 |
| 20260502195800 | 19 | 8 | 16.1 | 25.7 | 0.00 | 0.00 | 0.00 | 38 | 1015.5 |
| 20260502195301 | 19 | 28 | 3.2 | 17.7 | 0.00 | 0.00 | 0.00 | 38 | 1015.5 |
| 20260502195215 | 19 | 28 | 3.2 | 17.7 | 0.00 | 0.00 | 0.00 | 38 | 1015.5 |
| 20260502194802 | 18 | 0 | 14.5 | 16.1 | 0.00 | 0.00 | 0.00 | 39 | 1015.5 |
| 20260502194301 | 18 | 304 | 3.2 | 14.5 | 0.00 | 0.00 | 0.00 | 39 | 1015.6 |
| 20260502194215 | 18 | 304 | 3.2 | 14.5 | 0.00 | 0.00 | 0.00 | 39 | 1015.6 |
| 20260502193801 | 18 | 4 | 6.4 | 11.3 | 0.00 | 0.00 | 0.00 | 38 | 1015.6 |
| 20260502193301 | 18 | 32 | 8.0 | 14.5 | 0.00 | 0.00 | 0.00 | 40 | 1015.6 |
| 20260502193216 | 18 | 32 | 8.0 | 14.5 | 0.00 | 0.00 | 0.00 | 40 | 1015.6 |
| 20260502192802 | 18 | 359 | 16.1 | 16.1 | 0.00 | 0.00 | 0.00 | 38 | 1015.5 |
| 20260502192304 | 18 | 332 | 25.7 | 25.7 | 0.00 | 0.00 | 0.00 | 39 | 1015.5 |
| 20260502192215 | 18 | 332 | 25.7 | 25.7 | 0.00 | 0.00 | 0.00 | 39 | 1015.5 |
| 20260502191801 | 18 | 316 | 6.4 | 16.1 | 0.00 | 0.00 | 0.00 | 37 | 1015.5 |
| 20260502191300 | 18 | 31 | 14.5 | 24.1 | 0.00 | 0.00 | 0.00 | 36 | 1015.6 |
| 20260502191214 | 18 | 31 | 14.5 | 24.1 | 0.00 | 0.00 | 0.00 | 36 | 1015.6 |
| 20260502190801 | 18 | 56 | 3.2 | 16.1 | 0.00 | 0.00 | 0.00 | 37 | 1015.6 |
| 20260502190300 | 18 | 73 | 8.0 | 11.3 | 0.00 | 0.00 | 0.00 | 36 | 1015.6 |
| 20260502190215 | 18 | 73 | 8.0 | 11.3 | 0.00 | 0.00 | 0.00 | 36 | 1015.6 |
| 20260502185801 | 18 | 330 | 0.0 | 16.1 | 0.00 | 0.00 | 0.00 | 36 | 1015.7 |
| 20260502185301 | 18 | 18 | 6.4 | 16.1 | 0.00 | 0.00 | 0.00 | 36 | 1015.7 |
| 20260502185214 | 18 | 18 | 6.4 | 16.1 | 0.00 | 0.00 | 0.00 | 36 | 1015.7 |
| 20260502184800 | 18 | 328 | 14.5 | 14.5 | 0.00 | 0.00 | 0.00 | 38 | 1015.7 |
| 20260502184302 | 18 | 4 | 9.7 | 17.7 | 0.00 | 0.00 | 0.00 | 36 | 1016.0 |
| 20260502184214 | 18 | 10 | 1.6 | 1.6 | 0.00 | 0.00 | 0.00 | 36 | 1016.0 |
| 20260502183801 | 18 | 44 | 4.8 | 16.1 | 0.00 | 0.00 | 0.00 | 35 | 1016.0 |
| 20260502183302 | 18 | 25 | 9.7 | 17.7 | 0.00 | 0.00 | 0.00 | 34 | 1016.0 |
| 20260502183213 | 18 | 25 | 9.7 | 17.7 | 0.00 | 0.00 | 0.00 | 34 | 1016.0 |
| 20260502182800 | 18 | 344 | 8.0 | 11.3 | 0.00 | 0.00 | 0.00 | 35 | 1015.9 |
| 20260502182300 | 18 | 323 | 9.7 | 16.1 | 0.00 | 0.00 | 0.00 | 38 | 1015.9 |
| 20260502182215 | 18 | 323 | 9.7 | 16.1 | 0.00 | 0.00 | 0.00 | 38 | 1015.9 |
| 20260502181800 | 18 | 0 | 9.7 | 22.5 | 0.00 | 0.00 | 0.00 | 34 | 1015.9 |
| 20260502181301 | 18 | 38 | 4.8 | 6.4 | 0.00 | 0.00 | 0.00 | 36 | 1015.9 |
| 20260502181214 | 18 | 38 | 4.8 | 6.4 | 0.00 | 0.00 | 0.00 | 36 | 1015.9 |
| 20260502180800 | 18 | 312 | 11.3 | 16.1 | 0.00 | 0.00 | 0.00 | 40 | 1015.9 |
| 20260502180301 | 18 | 93 | 0.0 | 11.3 | 0.00 | 0.00 | 0.00 | 39 | 1015.9 |
| 20260502180214 | 18 | 93 | 0.0 | 11.3 | 0.00 | 0.00 | 0.00 | 39 | 1015.9 |
| 20260502170301 | 17 | 308 | 8.0 | 16.1 | 0.00 | 0.00 | 0.00 | 46 | 1016.5 |
| 20260502170214 | 17 | 308 | 8.0 | 16.1 | 0.00 | 0.00 | 0.00 | 46 | 1016.5 |
| 20260502164301 | 16 | 350 | 16.1 | 16.1 | 0.00 | 0.00 | 0.00 | 45 | 1016.7 |
| 20260502164214 | 16 | 350 | 16.1 | 16.1 | 0.00 | 0.00 | 0.00 | 45 | 1016.7 |
| 20260502163801 | 16 | 48 | 1.6 | 12.9 | 0.00 | 0.00 | 0.00 | 47 | 1016.7 |
| 20260502163300 | 16 | 325 | 14.5 | 17.7 | 0.00 | 0.00 | 0.00 | 50 | 1016.7 |
| 20260502163214 | 16 | 325 | 14.5 | 17.7 | 0.00 | 0.00 | 0.00 | 50 | 1016.7 |
| 20260502162801 | 16 | 80 | 0.0 | 8.0 | 0.00 | 0.00 | 0.00 | 53 | 1016.8 |
| 20260502162301 | 16 | 347 | 14.5 | 14.5 | 0.00 | 0.00 | 0.00 | 51 | 1016.8 |
| 20260502162214 | 16 | 347 | 14.5 | 14.5 | 0.00 | 0.00 | 0.00 | 51 | 1016.8 |
| 20260502161800 | 15 | 336 | 6.4 | 16.1 | 0.00 | 0.00 | 0.00 | 51 | 1016.8 |
| 20260502161301 | 15 | 16 | 1.6 | 12.9 | 0.00 | 0.00 | 0.00 | 52 | 1016.9 |
| 20260502161215 | 15 | 16 | 1.6 | 12.9 | 0.00 | 0.00 | 0.00 | 52 | 1016.9 |
| 20260502160800 | 15 | 112 | 6.4 | 12.9 | 0.00 | 0.00 | 0.00 | 53 | 1016.9 |
| 20260502160302 | 15 | 6 | 11.3 | 16.1 | 0.00 | 0.00 | 0.00 | 52 | 1016.9 |
| 20260502160213 | 15 | 18 | 14.5 | 16.1 | 0.00 | 0.00 | 0.00 | 52 | 1016.9 |
| 20260502152305 | 13 | 8 | 17.7 | 17.7 | 0.00 | 0.00 | 0.00 | 61 | 1016.6 |
| 20260502152221 | 13 | 337 | 11.3 | 11.3 | 0.00 | 0.00 | 0.00 | 61 | 1016.6 |
| 20260502151801 | 13 | 48 | 4.8 | 16.1 | 0.00 | 0.00 | 0.00 | 61 | 1016.6 |
| 20260502151301 | 13 | 27 | 14.5 | 14.5 | 0.00 | 0.00 | 0.00 | 60 | 1016.5 |
| 20260502151215 | 13 | 27 | 14.5 | 14.5 | 0.00 | 0.00 | 0.00 | 60 | 1016.5 |
| 20260502150801 | 13 | 69 | 9.7 | 17.7 | 0.00 | 0.00 | 0.00 | 63 | 1016.5 |
| 20260502150302 | 13 | 24 | 4.8 | 8.0 | 0.00 | 0.00 | 0.00 | 65 | 1016.5 |
| 20260502150214 | 13 | 316 | 6.4 | 16.1 | 0.00 | 0.00 | 0.00 | 66 | 1016.5 |
| 20260502130301 | 10 | 6 | 3.2 | 4.8 | 0.00 | 0.00 | 0.00 | 74 | 1015.2 |
| 20260502130217 | 10 | 342 | 3.2 | 11.3 | 0.00 | 0.00 | 0.00 | 74 | 1015.2 |
| 20260502123540 | 11 | 17 | 3.2 | 11.3 | 0.00 | 0.00 | 0.00 | 69 | 1015.0 |
| 20260502123215 | 11 | 24 | 4.8 | 14.5 | 0.00 | 0.00 | 0.00 | 68 | 1015.0 |
| 20260502123041 | 11 | 343 | 4.8 | 14.5 | 0.00 | 0.00 | 0.00 | 68 | 1015.0 |
| 20260502122540 | 11 | 359 | 4.8 | 9.7 | 0.00 | 0.00 | 0.00 | 68 | 1014.9 |
| 20260502122213 | 11 | 357 | 6.4 | 16.1 | 0.00 | 0.00 | 0.00 | 68 | 1014.9 |
| 20260502122041 | 11 | 40 | 4.8 | 9.7 | 0.00 | 0.00 | 0.00 | 68 | 1014.9 |
| 20260502121540 | 11 | 1 | 1.6 | 9.7 | 0.00 | 0.00 | 0.00 | 68 | 1014.9 |
| 20260502121215 | 11 | 13 | 4.8 | 11.3 | 0.00 | 0.00 | 0.00 | 68 | 1014.7 |
| 20260502121041 | 11 | 357 | 6.4 | 19.3 | 0.00 | 0.00 | 0.00 | 67 | 1014.7 |
| 20260502120542 | 11 | 24 | 3.2 | 6.4 | 0.00 | 0.00 | 0.00 | 66 | 1014.7 |
| 20260502120214 | 11 | 8 | 1.6 | 8.0 | 0.00 | 0.00 | 0.00 | 67 | 1014.7 |
| 20260502115540 | 11 | 30 | 1.6 | 3.2 | 0.00 | 0.00 | 0.00 | 66 | 1014.8 |
| 20260502115215 | 11 | 40 | 3.2 | 6.4 | 0.00 | 0.00 | 0.00 | 66 | 1014.8 |
| 20260502115040 | 11 | 8 | 3.2 | 6.4 | 0.00 | 0.00 | 0.00 | 66 | 1014.8 |
| 20260502114541 | 11 | 18 | 6.4 | 9.7 | 0.00 | 0.00 | 0.00 | 65 | 1014.8 |
| 20260502114213 | 11 | 13 | 11.3 | 16.1 | 0.00 | 0.00 | 0.00 | 65 | 1014.8 |
| 20260502114041 | 11 | 42 | 6.4 | 9.7 | 0.00 | 0.00 | 0.00 | 65 | 1014.8 |
| 20260502113541 | 11 | 7 | 9.7 | 9.7 | 0.00 | 0.00 | 0.00 | 65 | 1014.8 |
| 20260502113215 | 11 | 28 | 4.8 | 9.7 | 0.00 | 0.00 | 0.00 | 65 | 1014.8 |
| 20260502113040 | 11 | 21 | 4.8 | 8.0 | 0.00 | 0.00 | 0.00 | 65 | 1014.8 |
| 20260502112541 | 11 | 32 | 3.2 | 8.0 | 0.00 | 0.00 | 0.00 | 66 | 1014.4 |
| 20260502112213 | 11 | 357 | 0.0 | 8.0 | 0.00 | 0.00 | 0.00 | 66 | 1014.4 |
| 20260502112041 | 11 | 78 | 1.6 | 11.3 | 0.00 | 0.00 | 0.00 | 66 | 1014.4 |
| 20260502111540 | 11 | 342 | 8.0 | 11.3 | 0.00 | 0.00 | 0.00 | 66 | 1014.4 |
| 20260502111215 | 11 | 100 | 1.6 | 9.7 | 0.00 | 0.00 | 0.00 | 66 | 1014.0 |
| 20260502111040 | 11 | 14 | 4.8 | 11.3 | 0.00 | 0.00 | 0.00 | 66 | 1014.0 |
| 20260502110542 | 11 | 357 | 1.6 | 4.8 | 0.00 | 0.00 | 0.00 | 66 | 1014.0 |
| 20260502110214 | 11 | 3 | 4.8 | 9.7 | 0.00 | 0.00 | 0.00 | 66 | 1014.0 |
| 20260502110041 | 11 | 357 | 8.0 | 8.0 | 0.00 | 0.00 | 0.00 | 65 | 1014.0 |
| 20260502105541 | 11 | 1 | 0.0 | 1.6 | 0.00 | 0.00 | 0.00 | 64 | 1013.8 |
| 20260502105213 | 11 | 0 | 6.4 | 6.4 | 0.00 | 0.00 | 0.00 | 64 | 1013.8 |
| 20260502105041 | 11 | 80 | 6.4 | 6.4 | 0.00 | 0.00 | 0.00 | 64 | 1013.8 |
| 20260502104542 | 11 | 1 | 4.8 | 4.8 | 0.00 | 0.00 | 0.00 | 64 | 1013.8 |
| 20260502104214 | 11 | 45 | 4.8 | 4.8 | 0.00 | 0.00 | 0.00 | 64 | 1013.9 |
| 20260502104041 | 11 | 23 | 4.8 | 6.4 | 0.00 | 0.00 | 0.00 | 63 | 1013.9 |
| 20260502103541 | 11 | 99 | 0.0 | 0.0 | 0.00 | 0.00 | 0.00 | 63 | 1013.9 |
| 20260502103213 | 11 | 7 | 8.0 | 9.7 | 0.00 | 0.00 | 0.00 | 63 | 1013.9 |
| 20260502103041 | 11 | 24 | 3.2 | 8.0 | 0.00 | 0.00 | 0.00 | 64 | 1013.9 |
| 20260502102541 | 11 | 30 | 3.2 | 8.0 | 0.00 | 0.00 | 0.00 | 63 | 1014.3 |
| 20260502102213 | 11 | 7 | 8.0 | 8.0 | 0.00 | 0.00 | 0.00 | 64 | 1014.3 |
| 20260502102041 | 11 | 0 | 0.0 | 3.2 | 0.00 | 0.00 | 0.00 | 64 | 1014.3 |
| 20260502101540 | 11 | 7 | 0.0 | 1.6 | 0.00 | 0.00 | 0.00 | 63 | 1014.3 |
| 20260502101215 | 11 | 34 | 0.0 | 3.2 | 0.00 | 0.00 | 0.00 | 63 | 1014.1 |
| 20260502101040 | 11 | 21 | 3.2 | 6.4 | 0.00 | 0.00 | 0.00 | 63 | 1014.1 |
| 20260502100541 | 11 | 17 | 6.4 | 8.0 | 0.00 | 0.00 | 0.00 | 62 | 1014.1 |
| 20260502100216 | 11 | 54 | 8.0 | 9.7 | 0.00 | 0.00 | 0.00 | 62 | 1014.1 |
| 20260502091359 | 11 | 47 | 3.2 | 9.7 | 0.00 | 0.00 | 0.00 | 62 | 1014.1 |
| 20260502091213 | 11 | 47 | 3.2 | 9.7 | 0.00 | 0.00 | 0.00 | 62 | 1014.1 |
| 20260502091042 | 11 | 1 | 3.2 | 3.2 | 0.00 | 0.00 | 0.00 | 61 | 1014.1 |
| 20260502090540 | 11 | 18 | 14.5 | 14.5 | 0.00 | 0.00 | 0.00 | 62 | 1014.1 |
| 20260502090246 | 12 | 332 | 4.8 | 9.7 | 0.00 | 0.00 | 0.00 | 62 | 1014.1 |
| 20260502090214 | 12 | 332 | 4.8 | 9.7 | 0.00 | 0.00 | 0.00 | 62 | 1014.1 |
| 20260502071216 | 12 | 38 | 8.0 | 16.1 | 0.00 | 0.00 | 0.00 | 62 | 1014.2 |
| 20260502071041 | 12 | 352 | 3.2 | 8.0 | 0.00 | 0.00 | 0.00 | 62 | 1014.2 |
| 20260502070540 | 12 | 17 | 6.4 | 11.3 | 0.00 | 0.00 | 0.00 | 63 | 1014.2 |
| 20260502070214 | 12 | 59 | 8.0 | 16.1 | 0.00 | 0.00 | 0.00 | 64 | 1014.2 |
| 20260502070042 | 12 | 21 | 1.6 | 3.2 | 0.00 | 0.00 | 0.00 | 64 | 1014.2 |
| 20260502065541 | 12 | 28 | 8.0 | 8.0 | 0.00 | 0.00 | 0.00 | 62 | 1014.1 |
| 20260502065215 | 13 | 340 | 1.6 | 4.8 | 0.00 | 0.00 | 0.00 | 61 | 1014.1 |
| 20260502065041 | 13 | 61 | 4.8 | 9.7 | 0.00 | 0.00 | 0.00 | 61 | 1014.1 |
| 20260502064541 | 13 | 16 | 1.6 | 6.4 | 0.00 | 0.00 | 0.00 | 62 | 1014.1 |
| 20260502064247 | 13 | 1 | 6.4 | 12.9 | 0.00 | 0.00 | 0.00 | 61 | 1014.3 |
| 20260502064214 | 13 | 1 | 6.4 | 12.9 | 0.00 | 0.00 | 0.00 | 61 | 1014.3 |
| 20260502064042 | 13 | 1 | 12.9 | 14.5 | 0.00 | 0.00 | 0.00 | 62 | 1014.3 |
| 20260502063541 | 13 | 4 | 14.5 | 14.5 | 0.00 | 0.00 | 0.00 | 63 | 1014.3 |
| 20260502063215 | 13 | 8 | 6.4 | 8.0 | 0.00 | 0.00 | 0.00 | 63 | 1014.3 |
| 20260502063040 | 13 | 3 | 3.2 | 16.1 | 0.00 | 0.00 | 0.00 | 63 | 1014.3 |
| 20260502062541 | 13 | 10 | 4.8 | 11.3 | 0.00 | 0.00 | 0.00 | 64 | 1014.3 |
| 20260502062214 | 13 | 359 | 11.3 | 11.3 | 0.00 | 0.00 | 0.00 | 65 | 1014.3 |
| 20260502062042 | 13 | 16 | 1.6 | 9.7 | 0.00 | 0.00 | 0.00 | 66 | 1014.3 |
| 20260502061541 | 13 | 23 | 8.0 | 9.7 | 0.00 | 0.00 | 0.00 | 68 | 1014.3 |
| 20260502061215 | 13 | 25 | 4.8 | 11.3 | 0.00 | 0.00 | 0.00 | 69 | 1014.4 |
| 20260502061041 | 13 | 14 | 4.8 | 11.3 | 0.00 | 0.00 | 0.00 | 69 | 1014.4 |
| 20260502060540 | 13 | 4 | 4.8 | 6.4 | 0.00 | 0.00 | 0.00 | 70 | 1014.4 |
| 20260502060213 | 13 | 1 | 3.2 | 8.0 | 0.00 | 0.00 | 0.00 | 71 | 1014.4 |
| 20260502060042 | 13 | 0 | 0.0 | 8.0 | 0.00 | 0.00 | 0.00 | 71 | 1014.4 |
| 20260502055541 | 13 | 17 | 1.6 | 9.7 | 0.00 | 0.00 | 0.00 | 74 | 1014.1 |
| 20260502055214 | 13 | 17 | 6.4 | 8.0 | 0.00 | 0.00 | 0.00 | 75 | 1014.1 |
| 20260502055040 | 13 | 37 | 0.0 | 14.5 | 0.00 | 0.00 | 0.00 | 75 | 1014.1 |
| 20260502054541 | 13 | 52 | 8.0 | 11.3 | 0.00 | 0.00 | 0.00 | 77 | 1014.1 |
| 20260502054213 | 13 | 1 | 4.8 | 9.7 | 0.00 | 0.00 | 0.00 | 79 | 1014.0 |
| 20260502054042 | 13 | 4 | 8.0 | 16.1 | 0.00 | 0.00 | 0.00 | 79 | 1014.0 |
| 20260502053542 | 13 | 4 | 6.4 | 14.5 | 0.00 | 0.00 | 0.00 | 80 | 1014.0 |
| 20260502053213 | 13 | 13 | 11.3 | 11.3 | 0.00 | 0.00 | 0.00 | 81 | 1014.0 |
| 20260502053041 | 13 | 0 | 3.2 | 12.9 | 0.00 | 0.00 | 0.00 | 82 | 1014.0 |
| 20260502052542 | 13 | 1 | 4.8 | 14.5 | 0.00 | 0.00 | 0.00 | 82 | 1013.9 |
| 20260502052215 | 13 | 6 | 1.6 | 4.8 | 0.00 | 0.00 | 0.00 | 82 | 1013.9 |
| 20260502052040 | 13 | 52 | 6.4 | 14.5 | 0.00 | 0.00 | 0.00 | 82 | 1013.9 |
| 20260502051540 | 13 | 18 | 8.0 | 9.7 | 0.00 | 0.00 | 0.00 | 82 | 1013.9 |
| 20260502051214 | 13 | 6 | 1.6 | 6.4 | 0.00 | 0.00 | 0.00 | 82 | 1013.9 |
| 20260502051041 | 13 | 354 | 8.0 | 16.1 | 0.00 | 0.00 | 0.00 | 82 | 1013.9 |
| 20260502050542 | 13 | 357 | 8.0 | 8.0 | 0.00 | 0.00 | 0.00 | 82 | 1013.9 |
| 20260502050215 | 13 | 8 | 3.2 | 11.3 | 0.00 | 0.00 | 0.00 | 82 | 1013.9 |
| 20260502050040 | 13 | 13 | 4.8 | 16.1 | 0.00 | 0.00 | 0.00 | 82 | 1013.9 |
| 20260502045541 | 13 | 8 | 8.0 | 16.1 | 0.00 | 0.00 | 0.00 | 83 | 1013.8 |
| 20260502045213 | 13 | 35 | 8.0 | 8.0 | 0.00 | 0.00 | 0.00 | 83 | 1013.8 |
| 20260502045040 | 13 | 8 | 9.7 | 14.5 | 0.00 | 0.00 | 0.00 | 83 | 1013.8 |
| 20260502044541 | 13 | 359 | 8.0 | 8.0 | 0.00 | 0.00 | 0.00 | 83 | 1013.8 |
| 20260502044215 | 13 | 32 | 6.4 | 14.5 | 0.00 | 0.00 | 0.00 | 83 | 1013.6 |
| 20260502044040 | 13 | 1 | 6.4 | 14.5 | 0.00 | 0.00 | 0.00 | 83 | 1013.6 |
| 20260502043541 | 13 | 0 | 6.4 | 14.5 | 0.00 | 0.00 | 0.00 | 83 | 1013.6 |
| 20260502043214 | 13 | 335 | 3.2 | 6.4 | 0.00 | 0.00 | 0.00 | 82 | 1013.6 |
| 20260502043042 | 13 | 27 | 6.4 | 6.4 | 0.00 | 0.00 | 0.00 | 82 | 1013.6 |
| 20260502042541 | 13 | 0 | 9.7 | 16.1 | 0.00 | 0.00 | 0.00 | 82 | 1013.6 |
| 20260502042214 | 13 | 357 | 9.7 | 9.7 | 0.00 | 0.00 | 0.00 | 82 | 1013.6 |
| 20260502042040 | 13 | 20 | 11.3 | 16.1 | 0.00 | 0.00 | 0.00 | 82 | 1013.6 |
| 20260502041540 | 13 | 357 | 8.0 | 11.3 | 0.00 | 0.00 | 0.00 | 82 | 1013.6 |